createdAt,value
2018-12-09T00:00:40.732Z,99.60
2018-12-09T00:01:40.726Z,99.60
2018-12-09T00:02:40.720Z,99.38
2018-12-09T00:03:40.708Z,99.80
2018-12-09T00:04:41.034Z,99.76
2018-12-09T00:05:40.686Z,99.91
2018-12-09T00:06:40.676Z,99.80
2018-12-09T00:07:40.658Z,99.60
2018-12-09T00:08:40.654Z,99.66
2018-12-09T00:09:40.641Z,99.28
2018-12-09T00:10:40.681Z,99.87
2018-12-09T00:11:40.618Z,99.76
2018-12-09T00:12:40.607Z,99.99
2018-12-09T00:13:40.596Z,99.99
2018-12-09T00:14:40.586Z,99.99
2018-12-09T00:15:40.576Z,99.99
2018-12-09T00:16:40.647Z,99.99
2018-12-09T00:17:40.556Z,99.99
2018-12-09T00:18:40.546Z,99.99
2018-12-09T00:19:40.533Z,99.99
2018-12-09T00:20:40.525Z,99.99
2018-12-09T00:21:51.579Z,99.99
2018-12-09T00:22:40.498Z,99.99
2018-12-09T00:23:40.495Z,99.99
2018-12-09T00:24:40.484Z,99.99
2018-12-09T00:25:40.473Z,99.99
2018-12-09T00:26:40.464Z,99.99
2018-12-09T00:27:40.467Z,99.99
2018-12-09T00:28:40.438Z,99.99
2018-12-09T00:29:40.436Z,99.99
2018-12-09T00:30:40.425Z,99.99
2018-12-09T00:31:40.406Z,99.99
2018-12-09T00:32:40.399Z,99.99
2018-12-09T00:33:40.405Z,99.99
2018-12-09T00:34:40.376Z,99.99
2018-12-09T00:35:40.365Z,99.99
2018-12-09T00:36:40.352Z,99.99
2018-12-09T00:37:40.348Z,99.99
2018-12-09T00:38:40.329Z,99.99
2018-12-09T00:39:40.361Z,99.99
2018-12-09T00:40:40.320Z,99.99
2018-12-09T00:41:40.300Z,99.99
2018-12-09T00:42:43.566Z,99.99
2018-12-09T00:43:40.275Z,99.99
2018-12-09T00:44:40.272Z,99.99
2018-12-09T00:45:40.298Z,99.99
2018-12-09T00:46:40.250Z,99.99
2018-12-09T00:47:40.238Z,99.99
2018-12-09T00:48:40.223Z,99.99
2018-12-09T00:49:40.213Z,99.99
2018-12-09T00:50:40.206Z,99.99
2018-12-09T00:51:40.235Z,99.99
2018-12-09T00:52:50.713Z,99.99
2018-12-09T00:53:40.177Z,99.99
2018-12-09T00:54:40.162Z,99.99
2018-12-09T00:55:40.150Z,99.99
2018-12-09T00:56:40.140Z,99.99
2018-12-09T00:57:40.939Z,99.99
2018-12-09T00:58:40.125Z,99.99
2018-12-09T00:59:40.108Z,99.99
2018-12-09T01:00:40.099Z,99.99
2018-12-09T01:01:40.092Z,99.99
2018-12-09T01:02:40.078Z,99.99
2018-12-09T01:03:40.083Z,99.99
2018-12-09T01:04:40.053Z,99.99
2018-12-09T01:05:40.052Z,99.99
2018-12-09T01:06:40.033Z,99.99
2018-12-09T01:07:40.021Z,99.99
2018-12-09T01:08:40.015Z,99.99
2018-12-09T01:09:40.046Z,99.99
2018-12-09T01:10:39.998Z,99.99
2018-12-09T01:11:39.987Z,99.99
2018-12-09T01:12:39.970Z,99.99
2018-12-09T01:13:39.955Z,99.99
2018-12-09T01:14:39.948Z,99.99
2018-12-09T01:15:40.076Z,99.99
2018-12-09T01:16:39.930Z,99.99
2018-12-09T01:17:47.206Z,99.99
2018-12-09T01:18:39.903Z,99.99
2018-12-09T01:19:39.898Z,99.99
2018-12-09T01:20:39.887Z,99.99
2018-12-09T01:21:40.056Z,99.99
2018-12-09T01:22:39.866Z,99.99
2018-12-09T01:23:39.853Z,99.99
2018-12-09T01:24:39.840Z,99.99
2018-12-09T01:25:39.836Z,99.99
2018-12-09T01:26:39.823Z,99.99
2018-12-09T01:27:39.848Z,99.99
2018-12-09T01:28:39.801Z,99.99
2018-12-09T01:29:39.787Z,99.99
2018-12-09T01:30:39.786Z,99.99
2018-12-09T01:31:39.764Z,99.99
2018-12-09T01:32:39.756Z,99.99
2018-12-09T01:33:39.783Z,99.99
2018-12-09T01:34:39.736Z,99.99
2018-12-09T01:35:39.730Z,99.99
2018-12-09T01:36:39.722Z,99.99
2018-12-09T01:37:39.702Z,99.99
2018-12-09T01:38:39.695Z,99.99
2018-12-09T01:39:39.759Z,99.99
2018-12-09T01:40:39.672Z,99.99
2018-12-09T01:41:39.687Z,99.99
2018-12-09T01:42:39.656Z,99.99
2018-12-09T01:43:39.643Z,99.99
2018-12-09T01:44:39.626Z,99.99
2018-12-09T01:45:39.656Z,99.99
2018-12-09T01:46:39.608Z,99.99
2018-12-09T01:47:39.633Z,99.99
2018-12-09T01:48:49.802Z,99.99
2018-12-09T01:49:39.579Z,99.99
2018-12-09T01:50:39.562Z,99.99
2018-12-09T01:51:39.589Z,99.99
2018-12-09T01:52:39.543Z,99.99
2018-12-09T01:53:39.533Z,99.99
2018-12-09T01:54:39.521Z,99.99
2018-12-09T01:55:39.508Z,99.99
2018-12-09T01:56:39.500Z,99.99
2018-12-09T01:57:39.565Z,99.99
2018-12-09T01:58:39.481Z,99.99
2018-12-09T01:59:39.464Z,99.99
2018-12-09T02:00:39.454Z,99.99
2018-12-09T02:01:39.445Z,99.99
2018-12-09T02:02:39.441Z,99.99
2018-12-09T02:03:40.311Z,99.99
2018-12-09T02:04:39.418Z,99.99
2018-12-09T02:05:39.402Z,99.99
2018-12-09T02:06:39.390Z,99.99
2018-12-09T02:07:39.385Z,99.99
2018-12-09T02:08:39.381Z,99.99
2018-12-09T02:09:39.380Z,99.99
2018-12-09T02:10:39.356Z,99.99
2018-12-09T02:11:39.338Z,99.99
2018-12-09T02:12:39.335Z,99.99
2018-12-09T02:13:39.321Z,99.99
2018-12-09T02:14:39.316Z,99.99
2018-12-09T02:15:39.574Z,99.99
2018-12-09T02:16:39.289Z,99.99
2018-12-09T02:17:39.282Z,99.99
2018-12-09T02:18:39.268Z,99.99
2018-12-09T02:19:49.255Z,99.99
2018-12-09T02:20:39.243Z,99.99
2018-12-09T02:21:39.603Z,99.99
2018-12-09T02:22:39.225Z,99.99
2018-12-09T02:23:39.209Z,99.99
2018-12-09T02:24:39.211Z,99.99
2018-12-09T02:25:39.192Z,99.99
2018-12-09T02:26:39.180Z,99.99
2018-12-09T02:27:39.593Z,99.99
2018-12-09T02:28:39.159Z,99.99
2018-12-09T02:29:39.151Z,99.99
2018-12-09T02:30:39.135Z,99.99
2018-12-09T02:31:39.129Z,99.99
2018-12-09T02:32:39.123Z,99.99
2018-12-09T02:33:39.145Z,99.99
2018-12-09T02:34:39.092Z,99.99
2018-12-09T02:35:39.087Z,99.99
2018-12-09T02:36:39.076Z,99.99
2018-12-09T02:37:39.069Z,99.99
2018-12-09T02:38:39.055Z,99.99
2018-12-09T02:39:39.095Z,99.99
2018-12-09T02:40:39.034Z,99.99
2018-12-09T02:41:39.131Z,99.99
2018-12-09T02:42:39.012Z,99.99
2018-12-09T02:43:39.010Z,99.99
2018-12-09T02:44:38.993Z,99.99
2018-12-09T02:45:39.000Z,99.99
2018-12-09T02:46:38.969Z,99.99
2018-12-09T02:47:38.953Z,99.99
2018-12-09T02:48:38.944Z,99.99
2018-12-09T02:49:38.944Z,99.99
2018-12-09T02:50:50.103Z,99.99
2018-12-09T02:51:38.911Z,99.99
2018-12-09T02:52:38.905Z,99.99
2018-12-09T02:53:38.896Z,99.99
2018-12-09T02:54:38.879Z,99.99
2018-12-09T02:55:38.877Z,99.99
2018-12-09T02:56:38.894Z,99.99
2018-12-09T02:57:38.846Z,99.99
2018-12-09T02:58:45.827Z,99.99
2018-12-09T02:59:38.827Z,99.99
2018-12-09T03:00:38.816Z,99.99
2018-12-09T03:01:38.807Z,99.99
2018-12-09T03:02:39.583Z,99.99
2018-12-09T03:03:46.067Z,99.99
2018-12-09T03:04:38.780Z,99.99
2018-12-09T03:05:38.764Z,99.99
2018-12-09T03:06:38.758Z,99.99
2018-12-09T03:07:38.748Z,99.99
2018-12-09T03:08:38.777Z,99.99
2018-12-09T03:09:45.722Z,99.99
2018-12-09T03:10:38.712Z,99.99
2018-12-09T03:11:38.699Z,99.99
2018-12-09T03:12:38.689Z,99.99
2018-12-09T03:13:38.682Z,99.99
2018-12-09T03:14:38.707Z,99.99
2018-12-09T03:15:38.659Z,99.99
2018-12-09T03:16:38.652Z,99.99
2018-12-09T03:17:38.637Z,99.99
2018-12-09T03:18:38.631Z,99.99
2018-12-09T03:19:38.620Z,99.99
2018-12-09T03:20:46.772Z,99.99
2018-12-09T03:21:38.597Z,99.99
2018-12-09T03:22:38.579Z,99.99
2018-12-09T03:23:38.575Z,99.99
2018-12-09T03:24:38.560Z,99.99
2018-12-09T03:25:38.566Z,99.99
2018-12-09T03:26:38.576Z,99.99
2018-12-09T03:27:38.535Z,99.99
2018-12-09T03:28:38.531Z,99.99
2018-12-09T03:29:38.512Z,99.99
2018-12-09T03:30:45.483Z,99.99
2018-12-09T03:31:38.495Z,99.99
2018-12-09T03:32:38.556Z,99.99
2018-12-09T03:33:38.465Z,99.99
2018-12-09T03:34:38.458Z,99.99
2018-12-09T03:35:38.444Z,99.99
2018-12-09T03:36:38.446Z,99.99
2018-12-09T03:37:46.252Z,99.99
2018-12-09T03:38:38.412Z,99.99
2018-12-09T03:39:38.403Z,99.99
2018-12-09T03:40:38.388Z,99.99
2018-12-09T03:41:45.366Z,99.99
2018-12-09T03:42:38.369Z,99.99
2018-12-09T03:43:38.396Z,99.99
2018-12-09T03:44:38.347Z,99.99
2018-12-09T03:45:38.339Z,99.99
2018-12-09T03:46:38.324Z,99.99
2018-12-09T03:47:38.316Z,99.99
2018-12-09T03:48:38.307Z,99.99
2018-12-09T03:49:38.795Z,99.99
2018-12-09T03:50:38.281Z,99.99
2018-12-09T03:51:38.274Z,99.99
2018-12-09T03:52:38.260Z,99.99
2018-12-09T03:53:38.267Z,99.99
2018-12-09T03:54:38.238Z,99.99
2018-12-09T03:55:38.775Z,99.99
2018-12-09T03:56:38.220Z,99.99
2018-12-09T03:57:38.204Z,99.99
2018-12-09T03:58:45.184Z,99.99
2018-12-09T03:59:38.195Z,99.99
2018-12-09T04:00:38.179Z,99.99
2018-12-09T04:01:38.803Z,99.99
2018-12-09T04:02:38.182Z,99.99
2018-12-09T04:03:38.150Z,99.99
2018-12-09T04:04:38.135Z,99.99
2018-12-09T04:05:38.121Z,99.99
2018-12-09T04:06:38.112Z,99.99
2018-12-09T04:07:38.135Z,99.99
2018-12-09T04:08:38.091Z,99.99
2018-12-09T04:09:38.080Z,99.99
2018-12-09T04:10:38.069Z,99.99
2018-12-09T04:11:38.057Z,99.99
2018-12-09T04:12:38.049Z,99.99
2018-12-09T04:13:38.825Z,99.99
2018-12-09T04:14:38.021Z,99.99
2018-12-09T04:15:38.012Z,99.99
2018-12-09T04:16:44.987Z,99.99
2018-12-09T04:17:37.990Z,99.99
2018-12-09T04:18:45.854Z,99.99
2018-12-09T04:19:37.972Z,99.99
2018-12-09T04:20:37.958Z,99.99
2018-12-09T04:21:44.933Z,99.99
2018-12-09T04:22:37.938Z,99.99
2018-12-09T04:23:44.912Z,99.99
2018-12-09T04:24:45.420Z,99.99
2018-12-09T04:25:37.911Z,99.99
2018-12-09T04:26:37.892Z,99.99
2018-12-09T04:27:37.891Z,99.99
2018-12-09T04:28:37.885Z,99.99
2018-12-09T04:29:37.878Z,99.99
2018-12-09T04:30:37.893Z,99.99
2018-12-09T04:31:37.849Z,99.99
2018-12-09T04:32:44.819Z,99.99
2018-12-09T04:33:37.823Z,99.99
2018-12-09T04:34:37.926Z,99.99
2018-12-09T04:35:37.801Z,99.99
2018-12-09T04:36:37.823Z,99.99
2018-12-09T04:37:37.786Z,99.99
2018-12-09T04:38:37.837Z,99.99
2018-12-09T04:39:37.756Z,99.99
2018-12-09T04:40:37.743Z,99.99
2018-12-09T04:41:37.743Z,99.99
2018-12-09T04:42:37.938Z,99.99
2018-12-09T04:43:44.700Z,99.99
2018-12-09T04:44:37.708Z,99.99
2018-12-09T04:45:37.694Z,99.99
2018-12-09T04:46:37.680Z,99.99
2018-12-09T04:47:37.668Z,99.99
2018-12-09T04:48:37.703Z,99.99
2018-12-09T04:49:37.648Z,99.99
2018-12-09T04:50:37.643Z,99.99
2018-12-09T04:51:37.631Z,99.99
2018-12-09T04:52:37.618Z,99.99
2018-12-09T04:53:37.611Z,99.99
2018-12-09T04:54:37.610Z,99.99
2018-12-09T04:55:37.589Z,99.99
2018-12-09T04:56:37.584Z,99.99
2018-12-09T04:57:37.563Z,99.99
2018-12-09T04:58:37.556Z,99.99
2018-12-09T04:59:37.538Z,99.99
2018-12-09T05:00:37.926Z,99.99
2018-12-09T05:01:37.566Z,99.99
2018-12-09T05:02:37.512Z,99.99
2018-12-09T05:03:37.512Z,99.99
2018-12-09T05:04:44.559Z,99.99
2018-12-09T05:05:37.474Z,99.99
2018-12-09T05:06:37.506Z,99.99
2018-12-09T05:07:37.461Z,99.99
2018-12-09T05:08:37.442Z,99.99
2018-12-09T05:09:37.446Z,99.99
2018-12-09T05:10:37.427Z,99.99
2018-12-09T05:11:37.414Z,99.99
2018-12-09T05:12:37.445Z,99.99
2018-12-09T05:13:37.398Z,99.99
2018-12-09T05:14:37.387Z,99.99
2018-12-09T05:15:37.378Z,99.99
2018-12-09T05:16:37.358Z,99.99
2018-12-09T05:17:37.359Z,99.99
2018-12-09T05:18:37.380Z,99.99
2018-12-09T05:19:37.328Z,99.99
2018-12-09T05:20:37.318Z,99.99
2018-12-09T05:21:37.307Z,99.99
2018-12-09T05:22:37.299Z,99.99
2018-12-09T05:23:37.285Z,99.99
2018-12-09T05:24:37.319Z,99.99
2018-12-09T05:25:37.262Z,99.99
2018-12-09T05:26:37.252Z,99.99
2018-12-09T05:27:37.247Z,99.99
2018-12-09T05:28:37.231Z,99.99
2018-12-09T05:29:37.220Z,99.99
2018-12-09T05:30:37.469Z,99.99
2018-12-09T05:31:37.201Z,99.99
2018-12-09T05:32:37.190Z,99.99
2018-12-09T05:33:37.181Z,99.99
2018-12-09T05:34:37.165Z,99.99
2018-12-09T05:35:47.974Z,99.99
2018-12-09T05:36:37.151Z,99.99
2018-12-09T05:37:37.141Z,99.99
2018-12-09T05:38:37.126Z,99.99
2018-12-09T05:39:37.117Z,99.99
2018-12-09T05:40:37.108Z,99.99
2018-12-09T05:41:37.127Z,99.99
2018-12-09T05:42:37.089Z,99.99
2018-12-09T05:43:37.077Z,99.99
2018-12-09T05:44:37.059Z,99.99
2018-12-09T05:45:37.048Z,99.99
2018-12-09T05:46:37.046Z,99.99
2018-12-09T05:47:37.074Z,99.99
2018-12-09T05:48:37.019Z,99.99
2018-12-09T05:49:37.011Z,99.99
2018-12-09T05:50:36.999Z,99.99
2018-12-09T05:51:36.987Z,99.99
2018-12-09T05:52:37.068Z,99.99
2018-12-09T05:53:37.474Z,99.99
2018-12-09T05:54:37.038Z,99.99
2018-12-09T05:55:36.942Z,99.99
2018-12-09T05:56:36.933Z,99.99
2018-12-09T05:57:36.925Z,99.99
2018-12-09T05:58:36.913Z,99.99
2018-12-09T05:59:36.947Z,99.99
2018-12-09T06:00:36.891Z,99.99
2018-12-09T06:01:36.885Z,99.99
2018-12-09T06:02:36.867Z,99.99
2018-12-09T06:03:36.984Z,99.99
2018-12-09T06:04:36.848Z,99.99
2018-12-09T06:05:37.631Z,99.99
2018-12-09T06:06:49.103Z,99.99
2018-12-09T06:07:36.865Z,99.99
2018-12-09T06:08:36.809Z,99.99
2018-12-09T06:09:36.799Z,99.99
2018-12-09T06:10:36.787Z,99.99
2018-12-09T06:11:36.794Z,99.99
2018-12-09T06:12:36.760Z,99.99
2018-12-09T06:13:36.754Z,99.99
2018-12-09T06:14:36.746Z,99.99
2018-12-09T06:15:36.736Z,99.99
2018-12-09T06:16:36.723Z,99.99
2018-12-09T06:17:36.747Z,99.99
2018-12-09T06:18:36.698Z,99.99
2018-12-09T06:19:36.688Z,99.99
2018-12-09T06:20:36.682Z,99.99
2018-12-09T06:21:36.673Z,99.99
2018-12-09T06:22:36.659Z,99.99
2018-12-09T06:23:36.980Z,99.99
2018-12-09T06:24:36.638Z,99.99
2018-12-09T06:25:36.621Z,99.99
2018-12-09T06:26:36.614Z,99.99
2018-12-09T06:27:36.599Z,99.99
2018-12-09T06:28:36.592Z,99.99
2018-12-09T06:29:36.980Z,99.99
2018-12-09T06:30:36.570Z,99.99
2018-12-09T06:31:36.562Z,99.99
2018-12-09T06:32:36.557Z,99.99
2018-12-09T06:33:36.537Z,99.99
2018-12-09T06:34:36.530Z,99.99
2018-12-09T06:35:36.554Z,99.99
2018-12-09T06:36:36.512Z,99.99
2018-12-09T06:37:46.816Z,99.99
2018-12-09T06:38:36.486Z,99.99
2018-12-09T06:39:36.475Z,99.99
2018-12-09T06:40:36.464Z,99.99
2018-12-09T06:41:36.496Z,99.99
2018-12-09T06:42:36.441Z,99.99
2018-12-09T06:43:36.436Z,99.99
2018-12-09T06:44:36.432Z,99.99
2018-12-09T06:45:36.412Z,99.99
2018-12-09T06:46:36.401Z,99.99
2018-12-09T06:47:36.434Z,99.99
2018-12-09T06:48:36.379Z,99.99
2018-12-09T06:49:36.371Z,99.99
2018-12-09T06:50:36.359Z,99.99
2018-12-09T06:51:36.351Z,99.99
2018-12-09T06:52:36.334Z,99.99
2018-12-09T06:53:36.368Z,99.99
2018-12-09T06:54:36.316Z,99.99
2018-12-09T06:55:36.311Z,99.94
2018-12-09T06:56:36.289Z,99.84
2018-12-09T06:57:36.280Z,99.99
2018-12-09T06:58:36.273Z,99.99
2018-12-09T06:59:36.483Z,99.99
2018-12-09T07:00:36.246Z,99.99
2018-12-09T07:01:36.243Z,99.99
2018-12-09T07:02:36.226Z,99.94
2018-12-09T07:03:36.220Z,99.99
2018-12-09T07:04:36.206Z,99.63
2018-12-09T07:05:36.477Z,99.84
2018-12-09T07:06:36.188Z,99.99
2018-12-09T07:07:36.184Z,99.98
2018-12-09T07:08:46.152Z,99.67
2018-12-09T07:09:36.154Z,99.84
2018-12-09T07:10:36.144Z,99.88
2018-12-09T07:11:36.170Z,99.46
2018-12-09T07:12:36.123Z,99.98
2018-12-09T07:13:36.159Z,99.88
2018-12-09T07:14:36.100Z,99.99
2018-12-09T07:15:36.086Z,99.46
2018-12-09T07:16:36.079Z,99.46
2018-12-09T07:17:36.082Z,99.77
2018-12-09T07:18:36.054Z,99.25
2018-12-09T07:19:36.046Z,99.57
2018-12-09T07:20:36.039Z,99.46
2018-12-09T07:21:36.032Z,99.88
2018-12-09T07:22:36.018Z,99.93
2018-12-09T07:23:36.041Z,99.88
2018-12-09T07:24:35.992Z,99.99
2018-12-09T07:25:35.979Z,99.93
2018-12-09T07:26:35.970Z,99.88
2018-12-09T07:27:35.972Z,99.93
2018-12-09T07:28:35.950Z,99.71
2018-12-09T07:29:35.961Z,99.51
2018-12-09T07:30:35.927Z,99.46
2018-12-09T07:31:35.918Z,99.35
2018-12-09T07:32:35.911Z,99.98
2018-12-09T07:33:35.893Z,99.67
2018-12-09T07:34:35.893Z,99.61
2018-12-09T07:35:35.911Z,99.57
2018-12-09T07:36:35.864Z,99.57
2018-12-09T07:37:35.856Z,99.15
2018-12-09T07:38:35.847Z,99.35
2018-12-09T07:39:46.179Z,99.40
2018-12-09T07:40:35.825Z,99.35
2018-12-09T07:41:36.795Z,99.51
2018-12-09T07:42:35.802Z,99.30
2018-12-09T07:43:35.788Z,99.46
2018-12-09T07:44:35.785Z,98.94
2018-12-09T07:45:35.781Z,99.51
2018-12-09T07:46:35.754Z,98.77
2018-12-09T07:47:36.541Z,98.88
2018-12-09T07:48:35.739Z,98.83
2018-12-09T07:49:35.728Z,98.88
2018-12-09T07:50:35.720Z,98.62
2018-12-09T07:51:35.704Z,99.08
2018-12-09T07:52:35.695Z,98.88
2018-12-09T07:53:35.720Z,98.98
2018-12-09T07:54:35.672Z,98.67
2018-12-09T07:55:35.658Z,98.62
2018-12-09T07:56:35.651Z,98.88
2018-12-09T07:57:35.644Z,98.88
2018-12-09T07:58:35.629Z,98.67
2018-12-09T07:59:36.099Z,98.67
2018-12-09T08:00:35.607Z,98.88
2018-12-09T08:01:35.597Z,98.56
2018-12-09T08:02:35.589Z,98.77
2018-12-09T08:03:35.577Z,98.98
2018-12-09T08:04:35.563Z,98.77
2018-12-09T08:05:35.595Z,98.88
2018-12-09T08:06:35.541Z,98.88
2018-12-09T08:07:35.533Z,98.77
2018-12-09T08:08:35.522Z,98.88
2018-12-09T08:09:35.516Z,98.56
2018-12-09T08:10:45.568Z,99.19
2018-12-09T08:11:35.488Z,98.77
2018-12-09T08:12:35.485Z,98.67
2018-12-09T08:13:35.469Z,98.88
2018-12-09T08:14:35.461Z,98.98
2018-12-09T08:15:35.453Z,98.71
2018-12-09T08:16:36.210Z,99.08
2018-12-09T08:17:35.430Z,98.77
2018-12-09T08:18:35.418Z,99.08
2018-12-09T08:19:35.458Z,98.88
2018-12-09T08:20:35.395Z,98.46
2018-12-09T08:21:35.386Z,98.98
2018-12-09T08:22:35.537Z,98.88
2018-12-09T08:23:35.361Z,98.82
2018-12-09T08:24:35.352Z,98.88
2018-12-09T08:25:35.344Z,98.98
2018-12-09T08:26:42.317Z,98.88
2018-12-09T08:27:35.319Z,98.82
2018-12-09T08:28:35.343Z,99.03
2018-12-09T08:29:35.391Z,98.88
2018-12-09T08:30:35.287Z,99.03
2018-12-09T08:31:42.267Z,99.13
2018-12-09T08:32:42.254Z,98.82
2018-12-09T08:33:35.253Z,99.19
2018-12-09T08:34:35.631Z,99.30
2018-12-09T08:35:35.234Z,99.34
2018-12-09T08:36:35.319Z,99.13
2018-12-09T08:37:35.222Z,98.98
2018-12-09T08:38:35.205Z,98.71
2018-12-09T08:39:35.195Z,99.03
2018-12-09T08:40:35.627Z,99.30
2018-12-09T08:41:35.172Z,98.46
2018-12-09T08:42:35.157Z,98.77
2018-12-09T08:43:35.167Z,98.61
2018-12-09T08:44:35.137Z,98.61
2018-12-09T08:45:35.138Z,98.56
2018-12-09T08:46:35.133Z,98.61
2018-12-09T08:47:35.159Z,98.46
2018-12-09T08:48:35.096Z,98.50
2018-12-09T08:49:35.142Z,98.61
2018-12-09T08:50:35.075Z,98.46
2018-12-09T08:51:35.062Z,98.56
2018-12-09T08:52:35.108Z,98.82
2018-12-09T08:53:35.046Z,98.77
2018-12-09T08:54:35.045Z,98.61
2018-12-09T08:55:35.019Z,98.56
2018-12-09T08:56:35.048Z,98.56
2018-12-09T08:57:35.003Z,98.61
2018-12-09T08:58:35.066Z,99.08
2018-12-09T08:59:34.981Z,98.98
2018-12-09T09:00:34.969Z,99.03
2018-12-09T09:01:34.979Z,99.03
2018-12-09T09:02:34.953Z,98.82
2018-12-09T09:03:45.173Z,98.82
2018-12-09T09:04:34.924Z,99.34
2018-12-09T09:05:34.917Z,99.03
2018-12-09T09:06:34.906Z,98.92
2018-12-09T09:07:34.900Z,99.30
2018-12-09T09:08:34.884Z,99.30
2018-12-09T09:09:35.698Z,99.34
2018-12-09T09:10:34.871Z,99.34
2018-12-09T09:11:34.854Z,98.77
2018-12-09T09:12:34.846Z,99.08
2018-12-09T09:13:34.831Z,99.19
2018-12-09T09:14:34.816Z,98.46
2018-12-09T09:15:35.117Z,98.46
2018-12-09T09:16:34.803Z,98.50
2018-12-09T09:17:34.787Z,98.46
2018-12-09T09:18:34.774Z,98.56
2018-12-09T09:19:34.772Z,98.46
2018-12-09T09:20:34.755Z,98.88
2018-12-09T09:21:34.781Z,98.67
2018-12-09T09:22:36.385Z,98.67
2018-12-09T09:23:34.730Z,98.77
2018-12-09T09:24:34.715Z,98.46
2018-12-09T09:25:34.701Z,98.46
2018-12-09T09:26:34.695Z,98.77
2018-12-09T09:27:34.740Z,98.67
2018-12-09T09:28:34.677Z,98.77
2018-12-09T09:29:34.672Z,98.46
2018-12-09T09:30:34.652Z,98.67
2018-12-09T09:31:34.635Z,98.77
2018-12-09T09:32:34.631Z,98.67
2018-12-09T09:33:37.388Z,98.67
2018-12-09T09:34:45.316Z,99.30
2018-12-09T09:35:34.601Z,99.19
2018-12-09T09:36:34.584Z,99.08
2018-12-09T09:37:34.574Z,99.08
2018-12-09T09:38:34.565Z,99.03
2018-12-09T09:39:34.601Z,99.19
2018-12-09T09:40:34.540Z,99.13
2018-12-09T09:41:34.530Z,99.30
2018-12-09T09:42:34.533Z,98.67
2018-12-09T09:43:34.509Z,98.56
2018-12-09T09:44:34.497Z,98.56
2018-12-09T09:45:34.561Z,98.46
2018-12-09T09:46:34.478Z,98.56
2018-12-09T09:47:34.472Z,98.67
2018-12-09T09:48:34.573Z,98.35
2018-12-09T09:49:34.443Z,98.56
2018-12-09T09:50:34.438Z,98.35
2018-12-09T09:51:34.445Z,98.56
2018-12-09T09:52:34.429Z,98.56
2018-12-09T09:53:34.410Z,98.56
2018-12-09T09:54:34.398Z,98.67
2018-12-09T09:55:34.391Z,98.56
2018-12-09T09:56:34.374Z,98.35
2018-12-09T09:57:34.434Z,98.25
2018-12-09T09:58:34.352Z,98.56
2018-12-09T09:59:34.342Z,98.04
2018-12-09T10:00:34.329Z,98.56
2018-12-09T10:01:34.317Z,98.04
2018-12-09T10:02:34.308Z,98.04
2018-12-09T10:03:34.334Z,97.93
2018-12-09T10:04:34.285Z,98.04
2018-12-09T10:05:45.171Z,98.46
2018-12-09T10:06:34.265Z,97.83
2018-12-09T10:07:34.255Z,98.25
2018-12-09T10:08:34.246Z,98.14
2018-12-09T10:09:34.638Z,98.35
2018-12-09T10:10:34.221Z,98.04
2018-12-09T10:11:34.217Z,98.14
2018-12-09T10:12:34.210Z,98.25
2018-12-09T10:13:34.195Z,98.14
2018-12-09T10:14:34.177Z,97.99
2018-12-09T10:15:34.963Z,98.14
2018-12-09T10:16:34.159Z,98.04
2018-12-09T10:17:34.156Z,98.10
2018-12-09T10:18:34.143Z,98.04
2018-12-09T10:19:34.128Z,97.83
2018-12-09T10:20:34.114Z,98.21
2018-12-09T10:21:34.147Z,98.14
2018-12-09T10:22:34.094Z,97.83
2018-12-09T10:23:34.089Z,97.83
2018-12-09T10:24:34.074Z,97.83
2018-12-09T10:25:34.064Z,98.04
2018-12-09T10:26:36.642Z,97.93
2018-12-09T10:27:34.059Z,97.83
2018-12-09T10:28:34.032Z,98.10
2018-12-09T10:29:34.019Z,98.04
2018-12-09T10:30:34.012Z,98.04
2018-12-09T10:31:41.295Z,98.41
2018-12-09T10:32:41.688Z,98.35
2018-12-09T10:33:33.980Z,98.46
2018-12-09T10:34:38.786Z,98.46
2018-12-09T10:35:34.960Z,98.25
2018-12-09T10:36:33.943Z,97.93
2018-12-09T10:37:33.940Z,97.89
2018-12-09T10:38:34.194Z,97.72
2018-12-09T10:39:33.925Z,98.04
2018-12-09T10:40:33.915Z,97.52
2018-12-09T10:41:33.897Z,97.62
2018-12-09T10:42:33.880Z,97.68
2018-12-09T10:43:33.873Z,97.89
2018-12-09T10:44:33.898Z,97.78
2018-12-09T10:45:33.855Z,97.93
2018-12-09T10:46:33.849Z,97.83
2018-12-09T10:47:33.843Z,98.04
2018-12-09T10:48:33.822Z,98.04
2018-12-09T10:49:33.811Z,97.72
2018-12-09T10:50:33.834Z,97.62
2018-12-09T10:51:33.789Z,98.04
2018-12-09T10:52:33.776Z,97.93
2018-12-09T10:53:33.768Z,98.04
2018-12-09T10:54:33.770Z,97.41
2018-12-09T10:55:33.741Z,97.93
2018-12-09T10:56:33.752Z,98.04
2018-12-09T10:57:33.728Z,97.93
2018-12-09T10:58:33.709Z,98.04
2018-12-09T10:59:33.699Z,97.83
2018-12-09T11:00:33.698Z,97.93
2018-12-09T11:01:34.607Z,97.83
2018-12-09T11:02:33.705Z,98.04
2018-12-09T11:03:44.037Z,97.41
2018-12-09T11:04:40.943Z,98.04
2018-12-09T11:05:40.623Z,97.83
2018-12-09T11:06:40.616Z,97.83
2018-12-09T11:07:33.617Z,97.62
2018-12-09T11:08:33.759Z,97.78
2018-12-09T11:09:33.599Z,97.99
2018-12-09T11:10:33.596Z,97.72
2018-12-09T11:11:33.581Z,97.93
2018-12-09T11:12:33.563Z,97.52
2018-12-09T11:13:33.555Z,97.72
2018-12-09T11:14:33.596Z,97.62
2018-12-09T11:15:33.533Z,97.72
2018-12-09T11:16:33.519Z,98.04
2018-12-09T11:17:33.786Z,97.99
2018-12-09T11:18:33.498Z,97.83
2018-12-09T11:19:33.498Z,97.93
2018-12-09T11:20:33.532Z,98.04
2018-12-09T11:21:33.468Z,97.72
2018-12-09T11:22:33.461Z,97.62
2018-12-09T11:23:33.445Z,98.04
2018-12-09T11:24:33.434Z,97.89
2018-12-09T11:25:33.437Z,97.93
2018-12-09T11:26:33.450Z,97.78
2018-12-09T11:27:33.420Z,98.14
2018-12-09T11:28:33.394Z,97.83
2018-12-09T11:29:33.380Z,98.14
2018-12-09T11:30:33.375Z,97.20
2018-12-09T11:31:33.367Z,97.09
2018-12-09T11:32:33.427Z,97.16
2018-12-09T11:33:33.345Z,97.09
2018-12-09T11:34:33.328Z,97.93
2018-12-09T11:35:33.317Z,97.09
2018-12-09T11:36:33.305Z,96.89
2018-12-09T11:37:45.019Z,97.09
2018-12-09T11:38:33.287Z,96.99
2018-12-09T11:39:33.274Z,97.41
2018-12-09T11:40:33.273Z,97.30
2018-12-09T11:41:33.255Z,97.41
2018-12-09T11:42:33.249Z,97.41
2018-12-09T11:43:33.764Z,97.52
2018-12-09T11:44:33.225Z,97.41
2018-12-09T11:45:33.215Z,96.99
2018-12-09T11:46:33.204Z,97.30
2018-12-09T11:47:33.196Z,97.41
2018-12-09T11:48:33.185Z,97.30
2018-12-09T11:49:33.284Z,97.09
2018-12-09T11:50:33.163Z,97.09
2018-12-09T11:51:33.146Z,98.25
2018-12-09T11:52:33.141Z,97.83
2018-12-09T11:53:33.127Z,97.30
2018-12-09T11:54:33.119Z,98.04
2018-12-09T11:55:33.124Z,98.35
2018-12-09T11:56:33.101Z,97.41
2018-12-09T11:57:33.090Z,97.20
2018-12-09T11:58:33.079Z,97.30
2018-12-09T11:59:33.064Z,96.99
2018-12-09T12:00:33.056Z,97.09
2018-12-09T12:01:33.058Z,97.09
2018-12-09T12:02:33.035Z,97.16
2018-12-09T12:03:33.021Z,96.89
2018-12-09T12:04:33.012Z,97.52
2018-12-09T12:05:32.999Z,97.20
2018-12-09T12:06:32.987Z,97.62
2018-12-09T12:07:33.019Z,98.04
2018-12-09T12:08:45.107Z,96.99
2018-12-09T12:09:32.958Z,97.41
2018-12-09T12:10:32.945Z,96.89
2018-12-09T12:11:32.938Z,97.09
2018-12-09T12:12:32.927Z,97.20
2018-12-09T12:13:32.961Z,97.20
2018-12-09T12:14:32.910Z,97.09
2018-12-09T12:15:32.895Z,97.41
2018-12-09T12:16:32.884Z,97.09
2018-12-09T12:17:32.881Z,97.30
2018-12-09T12:18:32.866Z,97.62
2018-12-09T12:19:32.892Z,97.52
2018-12-09T12:20:32.844Z,97.20
2018-12-09T12:21:32.834Z,96.78
2018-12-09T12:22:32.829Z,97.30
2018-12-09T12:23:32.811Z,97.09
2018-12-09T12:24:32.797Z,97.30
2018-12-09T12:25:32.808Z,97.30
2018-12-09T12:26:32.773Z,97.41
2018-12-09T12:27:32.763Z,96.78
2018-12-09T12:28:32.769Z,97.52
2018-12-09T12:29:32.747Z,97.20
2018-12-09T12:30:32.736Z,97.30
2018-12-09T12:31:32.756Z,97.41
2018-12-09T12:32:32.711Z,97.41
2018-12-09T12:33:32.698Z,97.30
2018-12-09T12:34:32.706Z,97.41
2018-12-09T12:35:32.683Z,97.41
2018-12-09T12:36:32.670Z,97.83
2018-12-09T12:37:32.695Z,97.16
2018-12-09T12:38:32.655Z,97.09
2018-12-09T12:39:42.940Z,97.52
2018-12-09T12:40:32.628Z,97.20
2018-12-09T12:41:32.620Z,97.20
2018-12-09T12:42:32.613Z,97.09
2018-12-09T12:43:32.705Z,97.30
2018-12-09T12:44:32.583Z,97.30
2018-12-09T12:45:32.580Z,97.30
2018-12-09T12:46:32.568Z,97.26
2018-12-09T12:47:32.555Z,97.52
2018-12-09T12:48:32.540Z,96.89
2018-12-09T12:49:32.565Z,96.73
2018-12-09T12:50:32.522Z,96.84
2018-12-09T12:51:32.513Z,96.84
2018-12-09T12:52:32.513Z,96.84